Time;durP1;ratioP1;P1;durP2;ratioP2;P2;SDS_P1;SDS_P2;PMS_P1;PMS_P2;Temp;Humidity;BMP_temperature;BMP_pressure;BME280_temperature;BME280_humidity;BME280_pressure;Samples;Min_cycle;Max_cycle;Signal;HPM_P1;HPM_P2
2021/06/09 00:01:36;;;;;;;16.70;12.03;;;;;;;17.31;58.69;100727.21;128684;1092;24495;-76
2021/06/09 00:04:06;;;;;;;22.03;12.70;;;;;;;17.30;58.64;100729.06;128629;1092;22356;-76
2021/06/09 00:06:37;;;;;;;19.28;13.18;;;;;;;17.28;58.70;100728.44;128672;1092;22428;-76
2021/06/09 00:09:07;;;;;;;15.20;13.40;;;;;;;17.25;58.71;100720.01;128648;1092;22348;-77
2021/06/09 00:11:37;;;;;;;17.10;13.58;;;;;;;17.22;58.55;100726.56;128611;1092;22404;-77
2021/06/09 00:14:07;;;;;;;21.68;14.00;;;;;;;17.18;58.84;100728.00;128601;1092;22456;-76
2021/06/09 00:16:37;;;;;;;19.05;13.43;;;;;;;17.15;58.93;100729.22;128629;1092;22343;-75
2021/06/09 00:19:07;;;;;;;23.25;13.73;;;;;;;17.12;59.30;100718.13;128652;1092;22337;-75
2021/06/09 00:21:38;;;;;;;18.63;13.28;;;;;;;17.10;59.37;100723.68;128731;1092;22344;-77
2021/06/09 00:24:08;;;;;;;20.90;12.53;;;;;;;17.09;59.26;100719.38;128621;1092;24306;-75
2021/06/09 00:26:37;;;;;;;16.38;12.78;;;;;;;17.08;59.54;100723.05;128643;1092;22360;-75
2021/06/09 00:29:07;;;;;;;14.40;12.13;;;;;;;17.07;59.12;100720.59;128656;1092;24463;-75
2021/06/09 00:31:36;;;;;;;19.03;12.55;;;;;;;17.07;59.35;100720.59;128659;1092;24217;-75
2021/06/09 00:34:07;;;;;;;14.58;11.68;;;;;;;17.04;59.15;100716.47;128666;1092;22340;-77
2021/06/09 00:36:37;;;;;;;17.28;11.50;;;;;;;17.02;59.37;100717.69;128736;1092;22443;-76
2021/06/09 00:39:07;;;;;;;15.83;12.05;;;;;;;17.01;59.00;100726.73;128648;1092;22347;-77
2021/06/09 00:41:37;;;;;;;15.50;10.83;;;;;;;16.97;59.20;100728.98;128664;1092;22368;-76
2021/06/09 00:44:07;;;;;;;13.05;11.18;;;;;;;16.93;59.37;100727.74;128553;1092;23098;-75
2021/06/09 00:46:39;;;;;;;19.98;13.38;;;;;;;16.89;59.43;100718.47;128626;1092;22352;-76
2021/06/09 00:49:10;;;;;;;14.33;11.53;;;;;;;16.86;59.79;100724.20;128712;1092;23103;-76
2021/06/09 00:51:40;;;;;;;15.20;12.20;;;;;;;16.83;59.79;100725.45;128661;1092;22401;-76
2021/06/09 00:54:10;;;;;;;17.83;12.78;;;;;;;16.81;60.13;100722.14;128676;1092;22261;-76
2021/06/09 00:56:41;;;;;;;13.83;11.20;;;;;;;16.78;60.33;100722.54;128652;1090;22362;-77
2021/06/09 00:59:11;;;;;;;14.10;11.50;;;;;;;16.76;60.44;100727.27;128673;1092;22334;-77
2021/06/09 01:01:40;;;;;;;15.73;11.55;;;;;;;16.75;60.57;100740.79;128706;1092;24807;-75
2021/06/09 01:04:10;;;;;;;15.38;11.30;;;;;;;16.73;60.32;100734.79;128649;1092;22340;-75
2021/06/09 01:06:40;;;;;;;16.35;11.93;;;;;;;16.69;60.61;100731.70;128662;1092;22337;-76
2021/06/09 01:09:09;;;;;;;13.55;11.23;;;;;;;16.68;61.06;100732.73;128681;1092;22346;-76
2021/06/09 01:11:39;;;;;;;17.33;12.50;;;;;;;16.67;60.55;100733.76;128633;1092;24492;-75
2021/06/09 01:14:09;;;;;;;15.48;10.98;;;;;;;16.63;60.07;100735.19;128627;1092;24190;-75
2021/06/09 01:16:39;;;;;;;36.08;13.08;;;;;;;16.60;60.52;100731.06;128590;1092;22346;-75
2021/06/09 01:19:08;;;;;;;14.88;11.80;;;;;;;16.56;60.39;100732.48;128680;1092;23135;-77
2021/06/09 01:21:38;;;;;;;15.40;11.50;;;;;;;16.54;60.44;100726.52;128348;1092;24135;-75
2021/06/09 01:24:08;;;;;;;14.47;11.27;;;;;;;16.52;60.39;100731.20;128612;1092;22360;-75
2021/06/09 01:26:39;;;;;;;17.53;10.85;;;;;;;16.51;60.28;100734.09;128650;1092;22579;-76
2021/06/09 01:29:09;;;;;;;13.60;9.93;;;;;;;16.49;60.57;100736.94;128614;1092;22650;-76
2021/06/09 01:31:42;;;;;;;13.50;9.98;;;;;;;16.48;60.50;100741.45;128612;1092;22331;-75
2021/06/09 01:34:12;;;;;;;14.63;10.50;;;;;;;16.46;60.61;100743.51;128579;1092;22344;-77
2021/06/09 01:36:43;;;;;;;13.30;9.73;;;;;;;16.46;60.78;100735.51;128690;1092;22348;-76
2021/06/09 01:39:19;;;;;;;13.65;10.45;;;;;;;16.44;60.77;100737.53;128642;1092;23235;-75
2021/06/09 01:41:50;;;;;;;15.35;10.45;;;;;;;16.42;60.80;100736.89;128627;1092;22454;-76
2021/06/09 01:44:20;;;;;;;;;;;;;;;16.34;60.31;100737.07;128613;1092;22337;-75
2021/06/09 01:46:52;;;;;;;15.08;10.68;;;;;;;16.28;60.62;100737.84;128680;1092;21260;-75
2021/06/09 01:49:22;;;;;;;15.28;10.15;;;;;;;16.27;60.39;100735.39;128640;1092;22337;-75
2021/06/09 01:51:52;;;;;;;10.95;9.80;;;;;;;16.26;60.42;100737.23;128593;1092;22350;-76
2021/06/09 01:54:23;;;;;;;14.53;11.28;;;;;;;16.20;60.64;100730.84;128660;1092;22346;-76
2021/06/09 01:56:53;;;;;;;15.20;10.40;;;;;;;16.17;60.38;100733.89;128702;1092;22341;-77
2021/06/09 01:59:22;;;;;;;13.40;10.65;;;;;;;16.15;60.01;100727.92;128651;1092;23192;-77
2021/06/09 02:01:53;;;;;;;14.03;10.65;;;;;;;16.13;60.40;100729.97;128628;1092;22356;-77
2021/06/09 02:04:24;;;;;;;16.55;10.45;;;;;;;16.13;60.29;100723.83;128630;1092;22337;-77
2021/06/09 02:06:56;;;;;;;13.27;10.83;;;;;;;16.12;60.54;100724.82;128659;1092;22422;-76
2021/06/09 02:09:25;;;;;;;;;;;;;;;16.06;60.63;100720.27;128706;1092;24486;-76
2021/06/09 02:11:55;;;;;;;11.80;10.35;;;;;;;16.00;60.98;100717.38;128615;1092;21269;-77
2021/06/09 02:14:24;;;;;;;13.53;10.80;;;;;;;16.03;61.07;100726.83;128652;1092;22338;-77
2021/06/09 02:16:54;;;;;;;12.55;9.98;;;;;;;16.04;60.97;100715.14;128614;1092;22317;-76
2021/06/09 02:19:25;;;;;;;15.10;11.07;;;;;;;16.06;61.18;100717.60;128623;1092;22337;-76
2021/06/09 02:21:55;;;;;;;15.40;11.65;;;;;;;16.05;61.03;100715.96;128576;1092;22349;-76
2021/06/09 02:24:28;;;;;;;17.20;12.73;;;;;;;16.03;61.00;100726.83;128584;1092;22424;-76
2021/06/09 02:26:58;;;;;;;15.18;12.03;;;;;;;16.03;61.20;100732.16;128710;1092;22334;-76
2021/06/09 02:29:28;;;;;;;17.53;12.00;;;;;;;16.02;61.05;100729.67;128618;1092;22338;-76
2021/06/09 02:31:58;;;;;;;15.08;11.15;;;;;;;15.98;60.85;100726.58;128640;1092;22337;-76
2021/06/09 02:34:27;;;;;;;18.98;12.13;;;;;;;15.95;61.00;100725.11;128618;1092;22341;-75
2021/06/09 02:36:57;;;;;;;16.55;12.03;;;;;;;15.94;61.13;100720.81;128597;1092;22353;-75
2021/06/09 02:39:26;;;;;;;13.20;11.60;;;;;;;15.92;61.18;100716.69;128660;1092;25094;-76
2021/06/09 02:41:57;;;;;;;11.30;10.17;;;;;;;15.91;61.19;100726.52;128634;1092;22356;-76
2021/06/09 02:44:27;;;;;;;14.70;11.35;;;;;;;15.90;61.55;100726.73;128612;1092;23259;-75
2021/06/09 02:47:02;;;;;;;16.25;12.30;;;;;;;15.88;61.50;100718.91;128634;1092;22350;-75
2021/06/09 02:49:34;;;;;;;14.00;11.80;;;;;;;15.88;61.34;100721.58;128648;1092;22361;-76
2021/06/09 02:52:19;;;;;;;13.75;11.33;;;;;;;15.90;61.72;100719.56;128634;1092;22344;-77
2021/06/09 02:55:14;;;;;;;18.18;12.73;;;;;;;15.90;61.56;100719.56;128606;1092;24956;-75
2021/06/09 02:58:06;;;;;;;16.53;11.23;;;;;;;15.87;61.60;100716.46;128652;1092;24489;-76
2021/06/09 03:00:43;;;;;;;15.55;12.58;;;;;;;15.87;61.76;100721.79;128597;1092;22311;-76
2021/06/09 03:03:19;;;;;;;16.93;12.50;;;;;;;15.88;62.07;100726.91;128298;1095;24587;-76
2021/06/09 03:06:15;;;;;;;12.60;11.25;;;;;;;15.93;62.50;100723.69;128332;1095;24522;-76
2021/06/09 03:09:04;;;;;;;13.50;12.10;;;;;;;15.96;62.09;100726.78;128262;1095;22378;-76
2021/06/09 03:11:58;;;;;;;13.28;11.90;;;;;;;16.00;62.41;100729.88;128226;1095;22361;-75
2021/06/09 03:17:36;;;;;;;14.15;12.28;;;;;;;16.07;62.22;100735.26;128244;1095;22541;-76
2021/06/09 03:20:19;;;;;;;14.23;12.73;;;;;;;16.09;61.86;100731.36;128219;1095;22402;-77
2021/06/09 03:23:17;;;;;;;16.00;14.35;;;;;;;16.09;61.75;100735.87;128676;1092;22341;-77
2021/06/09 03:26:36;;;;;;;19.35;14.33;;;;;;;16.06;61.99;100736.25;128593;1092;22355;-76
2021/06/09 03:29:35;;;;;;;14.88;13.05;;;;;;;16.05;62.32;100737.28;128254;1097;22913;-76
2021/06/09 03:32:48;;;;;;;14.20;12.73;;;;;;;16.07;62.27;100737.92;128229;1098;22349;-76
2021/06/09 03:35:28;;;;;;;15.20;11.95;;;;;;;16.12;62.37;100735.48;128266;1098;22372;-76
2021/06/09 03:38:03;;;;;;;19.80;13.00;;;;;;;16.18;62.38;100737.38;128229;1098;22825;-75
2021/06/09 03:40:38;;;;;;;13.78;12.13;;;;;;;16.25;62.09;100738.23;128222;1096;22382;-75
2021/06/09 03:43:12;;;;;;;15.73;12.90;;;;;;;16.34;62.38;100738.92;128254;1098;22342;-77
2021/06/09 03:45:48;;;;;;;19.05;13.73;;;;;;;16.42;62.64;100733.41;128223;1096;22372;-75
2021/06/09 03:48:21;;;;;;;13.10;11.83;;;;;;;16.49;62.33;100734.27;128213;1098;23129;-76
2021/06/09 03:50:53;;;;;;;15.90;13.65;;;;;;;16.59;62.16;100741.91;128242;1098;22372;-76
2021/06/09 03:53:23;;;;;;;;;;;;;;;16.62;62.26;100741.52;128188;1098;22346;-75
2021/06/09 03:55:57;;;;;;;17.40;12.30;;;;;;;16.69;61.91;100742.37;128193;1098;21263;-75
2021/06/09 03:58:29;;;;;;;13.50;11.68;;;;;;;16.80;62.32;100733.84;128173;1098;25082;-77
2021/06/09 04:01:00;;;;;;;16.78;13.38;;;;;;;16.91;62.10;100743.12;128231;1098;22375;-76
2021/06/09 04:03:33;;;;;;;14.03;12.18;;;;;;;17.01;61.89;100746.23;128260;1098;22420;-77
2021/06/09 04:06:04;;;;;;;13.80;10.93;;;;;;;17.09;61.66;100746.06;128195;1095;23141;-76
2021/06/09 04:08:39;;;;;;;14.33;11.07;;;;;;;17.18;61.73;100736.83;128225;1095;22514;-75
2021/06/09 04:11:13;;;;;;;12.45;11.25;;;;;;;17.31;61.54;100736.05;128195;1095;24522;-76
2021/06/09 04:13:45;;;;;;;12.00;10.53;;;;;;;17.43;61.12;100738.10;128411;1095;22375;-76
2021/06/09 04:16:19;;;;;;;14.70;10.90;;;;;;;17.50;61.01;100741.63;128321;1095;22559;-76
2021/06/09 04:18:50;;;;;;;14.35;10.68;;;;;;;17.55;61.01;100750.66;128328;1095;22424;-75
2021/06/09 04:21:20;;;;;;;13.93;12.48;;;;;;;17.60;60.88;100750.88;128326;1095;22363;-75
2021/06/09 04:23:51;;;;;;;12.23;10.95;;;;;;;17.65;60.66;100744.91;128325;1095;22398;-75
2021/06/09 04:26:22;;;;;;;16.33;11.95;;;;;;;17.72;60.88;100747.59;128227;1095;22525;-76
2021/06/09 04:28:55;;;;;;;18.47;11.47;;;;;;;17.77;60.69;100748.66;128263;1095;22363;-76
2021/06/09 04:31:25;;;;;;;14.08;11.40;;;;;;;17.83;60.70;100753.19;128494;1095;22358;-76
2021/06/09 04:33:57;;;;;;;15.10;11.17;;;;;;;17.90;60.35;100753.19;128616;1092;22339;-76
2021/06/09 04:36:28;;;;;;;13.10;11.10;;;;;;;17.95;60.23;100741.87;128261;1094;23280;-76
2021/06/09 04:38:57;;;;;;;19.85;12.70;;;;;;;18.01;60.28;100744.53;128277;1095;22338;-76
2021/06/09 04:41:27;;;;;;;12.30;11.00;;;;;;;18.09;60.10;100746.16;128316;1095;22350;-76
2021/06/09 04:43:57;;;;;;;13.05;11.73;;;;;;;18.14;59.76;100745.56;128514;1094;22363;-76
2021/06/09 04:46:27;;;;;;;13.93;11.73;;;;;;;18.23;59.90;100747.00;128303;1095;22447;-76
2021/06/09 04:49:05;;;;;;;16.43;12.65;;;;;;;18.32;60.01;100745.72;128246;1098;22383;-76
2021/06/09 04:51:38;;;;;;;14.77;12.53;;;;;;;18.43;59.46;100746.95;128037;1098;22369;-77
2021/06/09 04:54:08;;;;;;;15.23;12.28;;;;;;;18.53;59.54;100758.04;128218;1093;22355;-76
2021/06/09 04:56:39;;;;;;;17.73;13.33;;;;;;;18.65;59.08;100753.66;128283;1095;22372;-76
2021/06/09 04:59:08;;;;;;;18.18;13.90;;;;;;;18.73;59.01;100756.15;128218;1095;22880;-76
2021/06/09 05:01:40;;;;;;;16.75;15.00;;;;;;;18.84;58.48;100767.23;128226;1095;22366;-77
2021/06/09 05:04:10;;;;;;;17.33;15.15;;;;;;;18.92;58.26;100751.73;128235;1093;22377;-77
2021/06/09 05:06:40;;;;;;;15.68;14.08;;;;;;;19.00;58.04;100751.50;128325;1092;22338;-77
2021/06/09 05:09:11;;;;;;;15.43;13.93;;;;;;;19.12;57.56;100748.95;128596;1092;22373;-77
2021/06/09 05:11:52;;;;;;;17.95;14.48;;;;;;;19.31;57.64;100746.39;128613;1094;22340;-77
2021/06/09 05:14:28;;;;;;;15.58;14.10;;;;;;;19.45;57.07;100751.44;128582;1092;22380;-76
2021/06/09 05:17:00;;;;;;;16.08;14.48;;;;;;;19.61;57.22;100751.95;128669;1092;22356;-76
2021/06/09 05:19:33;;;;;;;27.48;14.90;;;;;;;19.86;56.77;100746.63;128791;1092;22823;-75
2021/06/09 05:22:42;;;;;;;21.93;15.33;;;;;;;20.12;56.25;100751.75;128605;1095;22344;-76
2021/06/09 05:25:15;;;;;;;20.08;13.93;;;;;;;20.30;54.91;100756.34;128608;1092;22795;-76
2021/06/09 05:27:46;;;;;;;15.18;13.63;;;;;;;20.40;54.53;100755.83;128650;1092;22356;-77
2021/06/09 05:30:20;;;;;;;16.73;13.08;;;;;;;20.54;54.35;100756.53;128646;1092;22390;-75
2021/06/09 05:32:52;;;;;;;14.10;12.10;;;;;;;20.69;53.87;100756.95;128620;1092;22343;-77
2021/06/09 05:35:23;;;;;;;17.43;12.53;;;;;;;20.79;53.12;100762.64;128632;1092;24481;-76
2021/06/09 05:37:53;;;;;;;20.05;12.15;;;;;;;20.91;53.13;100758.14;128707;1092;22337;-76
2021/06/09 05:40:24;;;;;;;15.45;11.78;;;;;;;21.14;52.88;100759.30;128644;1092;22356;-76
2021/06/09 05:42:57;;;;;;;12.15;11.03;;;;;;;21.49;52.56;100762.14;128685;1092;22360;-79
2021/06/09 05:45:30;;;;;;;10.73;9.83;;;;;;;21.80;51.48;100762.90;128620;1092;22439;-78
2021/06/09 05:48:00;;;;;;;12.98;10.48;;;;;;;21.96;50.81;100759.53;128635;1092;22359;-76
2021/06/09 05:50:32;;;;;;;20.10;12.70;;;;;;;22.22;50.46;100765.51;128658;1092;22340;-76
2021/06/09 05:53:05;;;;;;;11.48;10.03;;;;;;;22.55;50.31;100768.39;128656;1092;24996;-76
2021/06/09 05:55:35;;;;;;;13.28;12.05;;;;;;;22.93;49.53;100777.03;128650;1092;22363;-77
2021/06/09 05:58:05;;;;;;;;;;;;;;;23.32;48.87;100772.63;128571;1092;22364;-77
2021/06/09 06:01:03;;;;;;;10.88;9.25;;;;;;;23.57;48.10;100769.58;128681;1091;21260;-76
2021/06/09 06:03:34;;;;;;;12.35;10.23;;;;;;;23.85;47.42;100765.20;128661;1092;22443;-77
2021/06/09 06:06:13;;;;;;;12.63;10.98;;;;;;;24.05;46.84;100768.20;128617;1092;24350;-77
2021/06/09 06:08:46;;;;;;;15.60;10.80;;;;;;;24.42;46.03;100770.38;128654;1092;22360;-76
2021/06/09 06:11:16;;;;;;;18.83;10.58;;;;;;;24.70;44.96;100771.30;128742;1092;22347;-76
2021/06/09 06:13:49;;;;;;;11.28;9.20;;;;;;;24.95;44.77;100771.58;128711;1092;22367;-76
2021/06/09 06:16:21;;;;;;;16.88;11.20;;;;;;;25.19;44.04;100774.03;128618;1092;22359;-77
2021/06/09 06:18:51;;;;;;;11.78;10.03;;;;;;;25.43;43.55;100774.56;128707;1092;22345;-76
2021/06/09 06:21:21;;;;;;;14.63;12.13;;;;;;;25.65;43.04;100769.88;128646;1092;22331;-76
2021/06/09 06:23:52;;;;;;;11.15;9.30;;;;;;;25.83;42.02;100776.02;128706;1092;23107;-76
2021/06/09 06:26:23;;;;;;;10.78;8.85;;;;;;;26.03;41.95;100770.75;128630;1092;22793;-77
2021/06/09 06:28:53;;;;;;;11.63;9.20;;;;;;;26.24;41.22;100780.63;128658;1092;22370;-76
2021/06/09 06:31:27;;;;;;;11.95;9.08;;;;;;;26.41;40.80;100776.93;128675;1092;22342;-77
2021/06/09 06:34:00;;;;;;;10.48;8.55;;;;;;;26.59;40.01;100778.39;128763;1092;22360;-77
2021/06/09 06:36:30;;;;;;;12.03;9.30;;;;;;;26.75;39.07;100783.61;128670;1092;22354;-78
2021/06/09 06:38:59;;;;;;;13.33;8.50;;;;;;;26.85;38.86;100777.42;128648;1092;22337;-77
2021/06/09 06:41:30;;;;;;;10.93;9.08;;;;;;;26.96;38.74;100781.00;128631;1092;22376;-77
2021/06/09 06:44:00;;;;;;;11.30;8.28;;;;;;;27.12;38.20;100781.84;128665;1092;22340;-77
2021/06/09 06:46:30;;;;;;;11.63;8.40;;;;;;;27.11;37.67;100786.45;128608;1092;22364;-77
2021/06/09 06:49:01;;;;;;;12.33;8.48;;;;;;;27.15;37.95;100784.86;128725;1092;22366;-78
2021/06/09 06:51:32;;;;;;;11.28;8.50;;;;;;;27.18;37.78;100784.33;128641;1092;22838;-77
2021/06/09 06:54:02;;;;;;;10.58;8.20;;;;;;;27.26;37.64;100790.30;128720;1092;22442;-81
2021/06/09 06:56:35;;;;;;;9.75;8.75;;;;;;;27.43;37.35;100774.63;128629;1092;22341;-79
2021/06/09 06:59:04;;;;;;;10.23;9.13;;;;;;;27.56;37.17;100786.84;128627;1092;24489;-77
2021/06/09 07:01:37;;;;;;;13.78;8.08;;;;;;;27.74;37.14;100791.72;128727;1092;22440;-77
2021/06/09 07:04:08;;;;;;;11.18;7.68;;;;;;;27.93;36.57;100778.45;128334;1095;22369;-78
2021/06/09 07:06:38;;;;;;;9.00;7.88;;;;;;;28.16;36.32;100785.21;128313;1095;22412;-76
2021/06/09 07:09:20;;;;;;;;;;;;;;;28.29;35.45;100787.36;128378;1095;24575;-76
2021/06/09 07:11:52;;;;;;;9.78;6.73;;;;;;;28.32;35.83;100786.80;128312;1095;21254;-78
2021/06/09 07:14:30;;;;;;;8.98;6.05;;;;;;;28.51;35.09;100789.75;128551;1094;22371;-79
2021/06/09 07:17:00;;;;;;;11.00;6.75;;;;;;;28.66;34.62;100788.90;128567;1094;22343;-77
2021/06/09 07:19:31;;;;;;;9.95;6.85;;;;;;;28.76;34.40;100794.30;128553;1095;22336;-77
2021/06/09 07:22:16;;;;;;;7.70;6.65;;;;;;;28.81;33.97;100793.45;128630;1092;22344;-82
2021/06/09 07:24:46;;;;;;;9.23;6.00;;;;;;;28.77;34.12;100793.19;128688;1092;22404;-80
2021/06/09 07:27:19;;;;;;;10.38;7.20;;;;;;;28.80;34.06;100789.11;128746;1092;22386;-82
2021/06/09 07:29:49;;;;;;;10.45;7.75;;;;;;;28.83;34.01;100799.43;128896;1092;22187;-79
2021/06/09 07:32:19;;;;;;;8.95;6.68;;;;;;;28.73;34.27;100794.04;128485;1095;22362;-78
2021/06/09 07:34:49;;;;;;;8.83;6.15;;;;;;;28.91;33.84;100803.47;128410;1095;22362;-76
2021/06/09 07:37:21;;;;;;;;;;;;;;;28.90;33.30;100799.94;128428;1095;22516;-78
2021/06/09 07:39:57;;;;;;;8.85;5.93;;;;;;;28.80;33.86;100800.80;128222;1095;21260;-77
2021/06/09 07:42:28;;;;;;;6.63;5.93;;;;;;;28.83;33.73;100799.43;128340;1093;22353;-78
2021/06/09 07:45:05;;;;;;;14.35;7.18;;;;;;;28.81;33.73;100796.97;128309;1095;22347;-78
2021/06/09 07:47:42;;;;;;;7.68;5.90;;;;;;;28.75;34.16;100797.27;128282;1095;22583;-78
2021/06/09 07:50:15;;;;;;;7.45;6.15;;;;;;;28.82;33.71;100803.22;128384;1095;22343;-79
2021/06/09 07:52:46;;;;;;;5.47;4.97;;;;;;;28.83;33.54;100804.87;128284;1095;22354;-78
2021/06/09 07:55:16;;;;;;;20.85;7.23;;;;;;;28.92;33.16;100797.73;128345;1095;24491;-78
2021/06/09 07:57:47;;;;;;;6.25;5.43;;;;;;;29.03;32.67;100793.92;128466;1092;22353;-78
2021/06/09 08:00:18;;;;;;;11.50;5.43;;;;;;;28.95;32.69;100797.17;128688;1092;24260;-77
2021/06/09 08:02:49;;;;;;;6.48;4.95;;;;;;;28.94;32.69;100798.28;128609;1092;22337;-78
2021/06/09 08:05:19;;;;;;;5.03;4.53;;;;;;;29.07;32.95;100796.89;128612;1092;24301;-78
2021/06/09 08:07:48;;;;;;;5.33;4.83;;;;;;;29.20;32.75;100792.73;128679;1091;22448;-78
2021/06/09 08:10:40;;;;;;;9.58;6.18;;;;;;;29.47;32.37;100798.53;128649;1092;23984;-77
2021/06/09 08:13:11;;;;;;;15.33;4.88;;;;;;;29.72;31.73;100804.90;128639;1092;22367;-79
2021/06/09 08:15:41;;;;;;;4.33;3.83;;;;;;;29.87;31.25;100804.78;128621;1092;24486;-78
2021/06/09 08:18:12;;;;;;;4.70;3.98;;;;;;;29.79;31.53;100802.69;128661;1092;25031;-77
2021/06/09 08:21:11;;;;;;;10.50;4.25;;;;;;;29.83;31.91;100801.02;128679;1092;22356;-77
2021/06/09 08:23:45;;;;;;;4.83;4.30;;;;;;;29.90;31.49;100801.48;128661;1092;22350;-78
2021/06/09 08:26:17;;;;;;;7.15;3.98;;;;;;;30.05;31.15;100807.89;128655;1092;23158;-78
2021/06/09 08:28:48;;;;;;;15.18;4.85;;;;;;;30.36;31.01;100814.70;128690;1092;24253;-78
2021/06/09 08:31:26;;;;;;;4.75;3.90;;;;;;;30.52;29.76;100809.87;128800;1092;22436;-78
2021/06/09 08:33:59;;;;;;;4.63;3.33;;;;;;;30.53;30.06;100803.33;128750;1092;24489;-78
2021/06/09 08:36:32;;;;;;;6.80;3.65;;;;;;;30.50;30.02;100805.83;128638;1092;24634;-77
2021/06/09 08:39:04;;;;;;;3.68;3.00;;;;;;;30.51;29.64;100801.99;128714;1092;24159;-76
2021/06/09 08:41:40;;;;;;;4.75;3.35;;;;;;;30.48;29.12;100806.91;128681;1092;22334;-76
2021/06/09 08:44:10;;;;;;;7.90;3.30;;;;;;;30.30;29.22;100807.67;128680;1092;22334;-78
2021/06/09 08:46:40;;;;;;;4.97;2.90;;;;;;;30.32;29.59;100810.91;128700;1092;22335;-78
2021/06/09 08:49:11;;;;;;;5.05;2.65;;;;;;;30.40;29.47;100804.84;128368;1095;22480;-78
2021/06/09 08:51:41;;;;;;;7.45;4.18;;;;;;;30.56;28.30;100804.67;128232;1095;25009;-78
2021/06/09 08:54:11;;;;;;;6.90;2.93;;;;;;;30.41;28.15;100809.17;128258;1095;22350;-77
2021/06/09 08:56:42;;;;;;;2.75;2.50;;;;;;;30.43;28.62;100804.26;128237;1095;22361;-77
2021/06/09 08:59:12;;;;;;;6.47;2.40;;;;;;;30.53;28.59;100811.52;128225;1095;22462;-77
2021/06/09 09:01:42;;;;;;;5.45;2.43;;;;;;;30.69;28.41;100812.13;128243;1095;22362;-76
2021/06/09 09:04:13;;;;;;;3.73;2.20;;;;;;;30.79;27.98;100819.40;128207;1095;22376;-77
2021/06/09 09:06:43;;;;;;;4.28;2.38;;;;;;;30.71;27.38;100813.46;128205;1092;22378;-77
2021/06/09 09:09:13;;;;;;;4.60;2.35;;;;;;;30.61;27.70;100815.50;128656;1092;22356;-77
2021/06/09 09:11:43;;;;;;;5.53;2.10;;;;;;;30.68;27.47;100819.50;128651;1092;22768;-78
2021/06/09 09:14:18;;;;;;;6.63;2.73;;;;;;;30.68;27.64;100814.04;128601;1095;23207;-78
2021/06/09 09:17:11;;;;;;;4.90;2.63;;;;;;;30.87;27.76;100819.58;128564;1095;23277;-77
2021/06/09 09:19:44;;;;;;;4.88;2.13;;;;;;;31.07;27.28;100809.50;128377;1095;22346;-77
2021/06/09 09:22:36;;;;;;;4.28;2.65;;;;;;;31.15;26.66;100814.28;128305;1095;22453;-77
2021/06/09 09:25:18;;;;;;;8.70;2.15;;;;;;;31.22;26.43;100828.38;128353;1095;22346;-78
2021/06/09 09:28:05;;;;;;;2.38;1.40;;;;;;;31.26;26.48;100815.78;128403;1095;22433;-76
2021/06/09 09:30:45;;;;;;;6.70;1.90;;;;;;;31.36;26.15;100815.66;128313;1095;22353;-81
2021/06/09 09:33:21;;;;;;;3.93;2.05;;;;;;;31.40;26.26;100813.95;128550;1095;22498;-75
2021/06/09 09:35:51;;;;;;;4.05;2.30;;;;;;;31.36;26.28;100814.86;129140;1095;22427;-79
2021/06/09 09:38:28;;;;;;;3.30;2.23;;;;;;;31.26;26.33;100817.70;128472;1092;22351;-77
2021/06/09 09:41:14;;;;;;;2.58;1.70;;;;;;;31.38;25.93;100816.16;128760;1092;22354;-77
2021/06/09 09:43:57;;;;;;;5.50;1.37;;;;;;;31.32;24.87;100811.91;128781;1092;23119;-74
2021/06/09 09:46:32;;;;;;;2.28;1.40;;;;;;;31.22;24.52;100811.19;128683;1092;22356;-78
2021/06/09 09:49:18;;;;;;;5.30;2.15;;;;;;;31.26;24.64;100812.25;128761;1092;24509;-77
2021/06/09 09:51:50;;;;;;;3.68;1.78;;;;;;;31.34;24.38;100820.59;128812;1092;22867;-77
2021/06/09 09:54:35;;;;;;;2.98;1.70;;;;;;;31.29;24.02;100808.90;128712;1092;22349;-78
2021/06/09 09:57:09;;;;;;;4.57;1.60;;;;;;;31.19;24.49;100807.16;128763;1092;22327;-79
2021/06/09 09:59:41;;;;;;;5.30;2.55;;;;;;;31.25;24.45;100822.33;128750;1092;23283;-78
2021/06/09 10:02:17;;;;;;;3.85;1.50;;;;;;;31.33;24.15;100805.33;128718;1092;22333;-78
2021/06/09 10:04:52;;;;;;;5.83;1.80;;;;;;;31.20;24.32;100811.50;128725;1092;22322;-78
2021/06/09 10:07:23;;;;;;;2.95;1.48;;;;;;;31.17;24.24;100806.63;128670;1092;22355;-79
2021/06/09 10:09:53;;;;;;;2.70;1.80;;;;;;;31.19;24.24;100809.89;128656;1092;22357;-77
2021/06/09 10:12:23;;;;;;;3.93;1.70;;;;;;;31.18;23.83;100809.05;128657;1092;22342;-78
2021/06/09 10:14:54;;;;;;;5.80;1.58;;;;;;;31.06;23.80;100811.42;128370;1092;22439;-79
2021/06/09 10:17:29;;;;;;;4.10;2.43;;;;;;;30.75;23.99;100801.97;128667;1092;22345;-77
2021/06/09 10:20:06;;;;;;;3.68;1.90;;;;;;;30.45;24.52;100799.31;128713;1092;22337;-78
2021/06/09 10:22:39;;;;;;;6.70;2.10;;;;;;;30.28;24.50;100801.69;128717;1092;22352;-77
2021/06/09 10:25:13;;;;;;;4.10;1.75;;;;;;;30.15;24.70;100794.16;128642;1090;24472;-78
2021/06/09 10:27:52;;;;;;;4.10;2.00;;;;;;;29.92;24.67;100795.74;128691;1092;24214;-77
2021/06/09 10:30:28;;;;;;;4.83;1.80;;;;;;;29.68;25.12;100785.60;128691;1092;22343;-78
2021/06/09 10:33:02;;;;;;;4.70;1.77;;;;;;;29.54;25.07;100799.02;128664;1092;22340;-79
2021/06/09 10:35:38;;;;;;;3.63;1.50;;;;;;;29.37;25.01;100786.91;128739;1092;22350;-79
2021/06/09 10:38:09;;;;;;;3.03;1.63;;;;;;;29.28;24.77;100794.84;128380;1092;22408;-78
2021/06/09 10:40:38;;;;;;;;;;;;;;;28.99;23.86;100792.83;128706;1092;22359;-78
2021/06/09 10:43:08;;;;;;;3.10;0.93;;;;;;;28.67;24.80;100800.58;128672;1092;21270;-78
2021/06/09 10:45:40;;;;;;;3.33;1.10;;;;;;;28.53;25.12;100789.49;128643;1092;22479;-79
2021/06/09 10:48:13;;;;;;;11.58;3.60;;;;;;;28.38;25.40;100785.68;128770;1092;23245;-78
2021/06/09 10:50:43;;;;;;;3.65;1.55;;;;;;;28.30;25.22;100782.73;128649;1092;22637;-79
2021/06/09 10:53:16;;;;;;;1.60;1.05;;;;;;;28.25;25.42;100777.30;128576;1092;24170;-79
2021/06/09 10:55:47;;;;;;;7.70;1.13;;;;;;;28.06;25.00;100772.45;128616;1092;22329;-79
2021/06/09 10:58:17;;;;;;;5.53;1.10;;;;;;;27.91;24.91;100777.90;128328;1095;22369;-77
2021/06/09 11:00:48;;;;;;;5.13;0.97;;;;;;;27.80;24.75;100770.86;128274;1095;22385;-78
2021/06/09 11:03:18;;;;;;;12.83;3.28;;;;;;;27.63;25.09;100763.77;128444;1095;22352;-78
2021/06/09 11:05:48;;;;;;;2.73;1.33;;;;;;;27.55;25.35;100769.72;128274;1095;22409;-78
2021/06/09 11:08:18;;;;;;;1.80;0.83;;;;;;;27.46;25.43;100757.80;128269;1094;24521;-78
2021/06/09 11:10:50;;;;;;;3.40;1.10;;;;;;;27.35;24.89;100770.52;128314;1095;22636;-78
2021/06/09 11:13:32;;;;;;;4.30;1.08;;;;;;;27.13;24.82;100769.95;128287;1095;23270;-78
2021/06/09 11:16:18;;;;;;;3.45;0.90;;;;;;;26.85;25.42;100771.19;128455;1092;25057;-79
2021/06/09 11:18:50;;;;;;;6.80;1.23;;;;;;;26.67;26.60;100764.36;128609;1092;22402;-79
2021/06/09 11:21:25;;;;;;;2.60;0.53;;;;;;;26.55;26.21;100772.69;128649;1092;24164;-79
2021/06/09 11:24:11;;;;;;;1.50;0.80;;;;;;;26.44;26.00;100758.25;128658;1092;22362;-79
2021/06/09 11:26:42;;;;;;;3.23;0.70;;;;;;;26.41;26.17;100763.39;128813;1092;24220;-78
2021/06/09 11:29:29;;;;;;;3.48;1.80;;;;;;;26.39;25.55;100758.25;128707;1092;22375;-77
2021/06/09 11:32:25;;;;;;;2.55;0.90;;;;;;;26.34;26.49;100754.69;128741;1095;22346;-77
2021/06/09 11:34:58;;;;;;;1.65;0.80;;;;;;;26.31;26.86;100760.63;127995;1098;22382;-77
2021/06/09 11:37:29;;;;;;;10.65;1.28;;;;;;;26.33;26.64;100759.30;128056;1098;22667;-78
2021/06/09 11:40:01;;;;;;;3.13;1.35;;;;;;;26.35;26.97;100759.83;127974;1098;22417;-78
2021/06/09 11:42:31;;;;;;;1.98;0.88;;;;;;;26.37;27.01;100765.00;127953;1098;22378;-78